sensor_id;sensor_type;location;lat;lon;timestamp;temperature;humidity
1129;DHT22;553;51.038;7.216;2023-06-22T00:01:19;22.80;85.70
1129;DHT22;553;51.038;7.216;2023-06-22T00:03:46;22.80;85.90
1129;DHT22;553;51.038;7.216;2023-06-22T00:06:13;22.80;85.80
1129;DHT22;553;51.038;7.216;2023-06-22T00:08:40;22.80;86.00
1129;DHT22;553;51.038;7.216;2023-06-22T00:11:07;22.80;85.80
1129;DHT22;553;51.038;7.216;2023-06-22T00:13:34;22.70;86.00
1129;DHT22;553;51.038;7.216;2023-06-22T00:16:01;22.70;86.20
1129;DHT22;553;51.038;7.216;2023-06-22T00:18:27;22.70;86.30
1129;DHT22;553;51.038;7.216;2023-06-22T00:20:55;22.70;86.30
1129;DHT22;553;51.038;7.216;2023-06-22T00:23:25;22.70;86.20
1129;DHT22;553;51.038;7.216;2023-06-22T00:25:52;22.60;86.00
1129;DHT22;553;51.038;7.216;2023-06-22T00:28:19;22.70;85.80
1129;DHT22;553;51.038;7.216;2023-06-22T00:30:46;22.70;85.70
1129;DHT22;553;51.038;7.216;2023-06-22T00:33:14;22.70;85.80
1129;DHT22;553;51.038;7.216;2023-06-22T00:35:42;22.70;85.70
1129;DHT22;553;51.038;7.216;2023-06-22T00:38:09;22.60;85.80
1129;DHT22;553;51.038;7.216;2023-06-22T00:40:36;22.70;85.70
1129;DHT22;553;51.038;7.216;2023-06-22T00:43:05;22.60;85.60
1129;DHT22;553;51.038;7.216;2023-06-22T00:45:32;22.70;85.50
1129;DHT22;553;51.038;7.216;2023-06-22T00:47:59;22.70;85.50
1129;DHT22;553;51.038;7.216;2023-06-22T00:50:29;22.70;85.30
1129;DHT22;553;51.038;7.216;2023-06-22T00:53:02;22.70;85.50
1129;DHT22;553;51.038;7.216;2023-06-22T00:55:41;22.60;85.60
1129;DHT22;553;51.038;7.216;2023-06-22T00:58:10;22.60;85.70
1129;DHT22;553;51.038;7.216;2023-06-22T01:00:39;22.60;85.70
1129;DHT22;553;51.038;7.216;2023-06-22T01:03:05;22.60;85.60
1129;DHT22;553;51.038;7.216;2023-06-22T01:05:37;22.60;85.60
1129;DHT22;553;51.038;7.216;2023-06-22T01:08:05;22.60;85.50
1129;DHT22;553;51.038;7.216;2023-06-22T01:10:44;22.60;85.60
1129;DHT22;553;51.038;7.216;2023-06-22T01:13:37;22.60;85.70
1129;DHT22;553;51.038;7.216;2023-06-22T01:16:15;22.60;85.50
1129;DHT22;553;51.038;7.216;2023-06-22T01:18:43;22.60;85.70
1129;DHT22;553;51.038;7.216;2023-06-22T01:21:16;22.60;85.70
1129;DHT22;553;51.038;7.216;2023-06-22T01:24:24;22.70;85.70
1129;DHT22;553;51.038;7.216;2023-06-22T01:29:55;22.80;85.30
1129;DHT22;553;51.038;7.216;2023-06-22T01:32:32;22.70;85.50
1129;DHT22;553;51.038;7.216;2023-06-22T01:35:01;22.70;85.60
1129;DHT22;553;51.038;7.216;2023-06-22T01:37:30;22.70;85.80
1129;DHT22;553;51.038;7.216;2023-06-22T01:39:59;22.60;85.90
1129;DHT22;553;51.038;7.216;2023-06-22T01:42:25;22.70;85.90
1129;DHT22;553;51.038;7.216;2023-06-22T01:44:53;22.60;86.00
1129;DHT22;553;51.038;7.216;2023-06-22T01:47:21;22.60;86.20
1129;DHT22;553;51.038;7.216;2023-06-22T01:49:49;22.60;86.10
1129;DHT22;553;51.038;7.216;2023-06-22T01:52:16;22.70;86.10
1129;DHT22;553;51.038;7.216;2023-06-22T01:54:42;22.60;86.20
1129;DHT22;553;51.038;7.216;2023-06-22T01:57:09;22.60;86.20
1129;DHT22;553;51.038;7.216;2023-06-22T02:00:03;22.70;86.10
1129;DHT22;553;51.038;7.216;2023-06-22T02:03:10;22.70;86.00
1129;DHT22;553;51.038;7.216;2023-06-22T02:05:49;22.70;86.10
1129;DHT22;553;51.038;7.216;2023-06-22T02:08:22;22.70;86.10
1129;DHT22;553;51.038;7.216;2023-06-22T02:10:52;22.70;86.20
1129;DHT22;553;51.038;7.216;2023-06-22T02:13:20;22.70;86.20
1129;DHT22;553;51.038;7.216;2023-06-22T02:15:48;22.70;86.30
1129;DHT22;553;51.038;7.216;2023-06-22T02:18:15;22.60;86.40
1129;DHT22;553;51.038;7.216;2023-06-22T02:20:42;22.60;86.50
1129;DHT22;553;51.038;7.216;2023-06-22T02:23:09;22.60;86.60
1129;DHT22;553;51.038;7.216;2023-06-22T02:25:36;22.50;86.80
1129;DHT22;553;51.038;7.216;2023-06-22T02:28:03;22.50;86.80
1129;DHT22;553;51.038;7.216;2023-06-22T02:30:30;22.50;86.80
1129;DHT22;553;51.038;7.216;2023-06-22T02:32:57;22.50;86.90
1129;DHT22;553;51.038;7.216;2023-06-22T02:35:30;22.50;86.90
1129;DHT22;553;51.038;7.216;2023-06-22T02:38:03;22.50;86.80
1129;DHT22;553;51.038;7.216;2023-06-22T02:40:31;22.50;87.20
1129;DHT22;553;51.038;7.216;2023-06-22T02:42:58;22.40;87.40
1129;DHT22;553;51.038;7.216;2023-06-22T02:45:29;22.40;87.50
1129;DHT22;553;51.038;7.216;2023-06-22T02:47:56;22.30;87.40
1129;DHT22;553;51.038;7.216;2023-06-22T02:50:23;22.30;87.60
1129;DHT22;553;51.038;7.216;2023-06-22T02:52:51;22.30;87.80
1129;DHT22;553;51.038;7.216;2023-06-22T02:55:18;22.30;87.80
1129;DHT22;553;51.038;7.216;2023-06-22T02:57:52;22.20;88.00
1129;DHT22;553;51.038;7.216;2023-06-22T03:00:20;22.30;87.80
1129;DHT22;553;51.038;7.216;2023-06-22T03:02:48;22.30;87.80
1129;DHT22;553;51.038;7.216;2023-06-22T03:05:16;22.20;88.10
1129;DHT22;553;51.038;7.216;2023-06-22T03:07:45;22.30;88.00
1129;DHT22;553;51.038;7.216;2023-06-22T03:10:13;22.20;88.10
1129;DHT22;553;51.038;7.216;2023-06-22T03:12:42;22.30;88.20
1129;DHT22;553;51.038;7.216;2023-06-22T03:15:10;22.20;88.40
1129;DHT22;553;51.038;7.216;2023-06-22T03:17:38;22.20;88.40
1129;DHT22;553;51.038;7.216;2023-06-22T03:20:08;22.20;88.40
1129;DHT22;553;51.038;7.216;2023-06-22T03:22:37;22.20;88.70
1129;DHT22;553;51.038;7.216;2023-06-22T03:25:05;22.10;88.90
1129;DHT22;553;51.038;7.216;2023-06-22T03:27:40;22.10;89.00
1129;DHT22;553;51.038;7.216;2023-06-22T03:30:10;22.10;89.30
1129;DHT22;553;51.038;7.216;2023-06-22T03:32:37;22.00;89.60
1129;DHT22;553;51.038;7.216;2023-06-22T03:35:05;22.00;89.80
1129;DHT22;553;51.038;7.216;2023-06-22T03:37:34;21.90;90.20
1129;DHT22;553;51.038;7.216;2023-06-22T03:40:02;21.90;90.40
1129;DHT22;553;51.038;7.216;2023-06-22T03:42:34;21.90;90.60
1129;DHT22;553;51.038;7.216;2023-06-22T03:45:03;21.90;90.70
1129;DHT22;553;51.038;7.216;2023-06-22T03:47:30;21.90;90.90
1129;DHT22;553;51.038;7.216;2023-06-22T03:49:57;21.90;91.00
1129;DHT22;553;51.038;7.216;2023-06-22T03:52:24;21.90;91.10
1129;DHT22;553;51.038;7.216;2023-06-22T03:54:51;21.90;91.20
1129;DHT22;553;51.038;7.216;2023-06-22T03:57:18;21.90;91.20
1129;DHT22;553;51.038;7.216;2023-06-22T03:59:45;21.90;91.10
1129;DHT22;553;51.038;7.216;2023-06-22T04:02:12;21.90;91.30
1129;DHT22;553;51.038;7.216;2023-06-22T04:04:38;21.90;91.50
1129;DHT22;553;51.038;7.216;2023-06-22T04:07:06;21.90;91.50
1129;DHT22;553;51.038;7.216;2023-06-22T04:09:33;21.90;91.80
1129;DHT22;553;51.038;7.216;2023-06-22T04:12:01;21.90;92.00
1129;DHT22;553;51.038;7.216;2023-06-22T04:14:28;21.90;92.20
1129;DHT22;553;51.038;7.216;2023-06-22T04:16:54;21.90;92.70
1129;DHT22;553;51.038;7.216;2023-06-22T04:19:21;21.90;93.00
1129;DHT22;553;51.038;7.216;2023-06-22T04:21:48;21.90;93.00
1129;DHT22;553;51.038;7.216;2023-06-22T04:24:15;21.90;93.20
1129;DHT22;553;51.038;7.216;2023-06-22T04:26:42;21.90;93.40
1129;DHT22;553;51.038;7.216;2023-06-22T04:29:11;21.90;93.50
1129;DHT22;553;51.038;7.216;2023-06-22T04:31:38;22.00;93.70
1129;DHT22;553;51.038;7.216;2023-06-22T04:34:06;22.00;93.90
1129;DHT22;553;51.038;7.216;2023-06-22T04:36:39;22.00;93.90
1129;DHT22;553;51.038;7.216;2023-06-22T04:39:11;22.10;94.10
1129;DHT22;553;51.038;7.216;2023-06-22T04:41:39;22.10;94.30
1129;DHT22;553;51.038;7.216;2023-06-22T04:44:15;22.10;94.60
1129;DHT22;553;51.038;7.216;2023-06-22T04:46:53;22.10;95.30
1129;DHT22;553;51.038;7.216;2023-06-22T04:49:21;22.10;95.70
1129;DHT22;553;51.038;7.216;2023-06-22T04:51:48;22.00;95.90
1129;DHT22;553;51.038;7.216;2023-06-22T04:54:18;22.10;96.10
1129;DHT22;553;51.038;7.216;2023-06-22T04:56:45;22.10;96.40
1129;DHT22;553;51.038;7.216;2023-06-22T04:59:13;22.20;96.60
1129;DHT22;553;51.038;7.216;2023-06-22T05:01:41;22.10;96.70
1129;DHT22;553;51.038;7.216;2023-06-22T05:04:08;22.10;96.80
1129;DHT22;553;51.038;7.216;2023-06-22T05:06:35;22.10;97.00
1129;DHT22;553;51.038;7.216;2023-06-22T05:09:04;22.10;97.30
1129;DHT22;553;51.038;7.216;2023-06-22T05:11:32;22.10;97.40
1129;DHT22;553;51.038;7.216;2023-06-22T05:13:59;22.10;97.70
1129;DHT22;553;51.038;7.216;2023-06-22T05:16:25;22.00;98.00
1129;DHT22;553;51.038;7.216;2023-06-22T05:18:53;22.00;98.40
1129;DHT22;553;51.038;7.216;2023-06-22T05:21:25;22.00;99.40
1129;DHT22;553;51.038;7.216;2023-06-22T05:23:53;21.90;99.90
1129;DHT22;553;51.038;7.216;2023-06-22T05:26:21;21.90;99.90
1129;DHT22;553;51.038;7.216;2023-06-22T05:28:48;21.80;99.90
1129;DHT22;553;51.038;7.216;2023-06-22T05:31:15;21.80;99.90
1129;DHT22;553;51.038;7.216;2023-06-22T05:33:43;21.80;99.90
1129;DHT22;553;51.038;7.216;2023-06-22T05:36:10;21.80;99.90
1129;DHT22;553;51.038;7.216;2023-06-22T05:38:38;21.80;99.90
1129;DHT22;553;51.038;7.216;2023-06-22T05:41:04;21.70;99.90
1129;DHT22;553;51.038;7.216;2023-06-22T05:43:31;21.70;99.90
1129;DHT22;553;51.038;7.216;2023-06-22T05:45:59;21.70;99.90
1129;DHT22;553;51.038;7.216;2023-06-22T05:48:26;21.70;99.90
1129;DHT22;553;51.038;7.216;2023-06-22T05:50:53;21.70;99.90
1129;DHT22;553;51.038;7.216;2023-06-22T05:53:20;21.80;99.90
1129;DHT22;553;51.038;7.216;2023-06-22T05:55:47;21.80;99.90
1129;DHT22;553;51.038;7.216;2023-06-22T05:58:15;21.90;99.90
1129;DHT22;553;51.038;7.216;2023-06-22T06:00:42;21.90;99.90
1129;DHT22;553;51.038;7.216;2023-06-22T06:03:10;21.80;99.90
1129;DHT22;553;51.038;7.216;2023-06-22T06:05:41;21.90;99.90
1129;DHT22;553;51.038;7.216;2023-06-22T06:08:07;21.90;99.90
1129;DHT22;553;51.038;7.216;2023-06-22T06:10:35;22.00;99.90
1129;DHT22;553;51.038;7.216;2023-06-22T06:13:02;22.10;99.90
1129;DHT22;553;51.038;7.216;2023-06-22T06:15:31;22.10;99.90
1129;DHT22;553;51.038;7.216;2023-06-22T06:17:58;22.20;99.90
1129;DHT22;553;51.038;7.216;2023-06-22T06:20:26;22.30;99.90
1129;DHT22;553;51.038;7.216;2023-06-22T06:22:55;22.50;99.90
1129;DHT22;553;51.038;7.216;2023-06-22T06:25:22;22.90;99.90
1129;DHT22;553;51.038;7.216;2023-06-22T06:27:51;23.40;98.40
1129;DHT22;553;51.038;7.216;2023-06-22T06:30:18;23.90;96.30
1129;DHT22;553;51.038;7.216;2023-06-22T06:32:46;24.20;95.20
1129;DHT22;553;51.038;7.216;2023-06-22T06:35:14;24.50;93.80
1129;DHT22;553;51.038;7.216;2023-06-22T06:37:44;24.70;92.70
1129;DHT22;553;51.038;7.216;2023-06-22T06:40:13;24.90;91.50
1129;DHT22;553;51.038;7.216;2023-06-22T06:42:41;25.20;91.50
1129;DHT22;553;51.038;7.216;2023-06-22T06:45:18;25.20;91.30
1129;DHT22;553;51.038;7.216;2023-06-22T06:47:46;25.30;90.50
1129;DHT22;553;51.038;7.216;2023-06-22T06:50:13;25.30;90.40
1129;DHT22;553;51.038;7.216;2023-06-22T06:52:40;25.40;90.10
1129;DHT22;553;51.038;7.216;2023-06-22T06:55:08;25.50;89.40
1129;DHT22;553;51.038;7.216;2023-06-22T06:57:39;25.60;88.80
1129;DHT22;553;51.038;7.216;2023-06-22T07:00:10;25.70;88.80
1129;DHT22;553;51.038;7.216;2023-06-22T07:02:43;26.00;88.20
1129;DHT22;553;51.038;7.216;2023-06-22T07:05:11;26.30;88.70
1129;DHT22;553;51.038;7.216;2023-06-22T07:07:38;26.50;87.30
1129;DHT22;553;51.038;7.216;2023-06-22T07:10:06;26.50;86.50
1129;DHT22;553;51.038;7.216;2023-06-22T07:12:33;26.50;86.30
1129;DHT22;553;51.038;7.216;2023-06-22T07:15:03;26.40;86.50
1129;DHT22;553;51.038;7.216;2023-06-22T07:17:31;26.20;86.80
1129;DHT22;553;51.038;7.216;2023-06-22T07:19:57;26.10;87.70
1129;DHT22;553;51.038;7.216;2023-06-22T07:22:24;26.20;87.80
1129;DHT22;553;51.038;7.216;2023-06-22T07:24:51;26.40;87.50
1129;DHT22;553;51.038;7.216;2023-06-22T07:27:18;26.80;87.50
1129;DHT22;553;51.038;7.216;2023-06-22T07:29:45;27.20;86.40
1129;DHT22;553;51.038;7.216;2023-06-22T07:32:12;27.40;85.60
1129;DHT22;553;51.038;7.216;2023-06-22T07:34:39;27.50;84.40
1129;DHT22;553;51.038;7.216;2023-06-22T07:37:06;27.70;84.70
1129;DHT22;553;51.038;7.216;2023-06-22T07:39:32;27.80;84.20
1129;DHT22;553;51.038;7.216;2023-06-22T07:41:59;27.70;84.40
1129;DHT22;553;51.038;7.216;2023-06-22T07:44:26;27.70;85.30
1129;DHT22;553;51.038;7.216;2023-06-22T07:46:52;27.90;84.30
1129;DHT22;553;51.038;7.216;2023-06-22T07:49:19;28.10;83.90
1129;DHT22;553;51.038;7.216;2023-06-22T07:51:46;28.20;82.70
1129;DHT22;553;51.038;7.216;2023-06-22T07:54:12;28.30;83.20
1129;DHT22;553;51.038;7.216;2023-06-22T07:56:42;28.50;82.90
1129;DHT22;553;51.038;7.216;2023-06-22T07:59:09;28.20;82.20
1129;DHT22;553;51.038;7.216;2023-06-22T08:01:36;28.10;82.20
1129;DHT22;553;51.038;7.216;2023-06-22T08:04:03;28.00;82.40
1129;DHT22;553;51.038;7.216;2023-06-22T08:06:30;28.00;83.20
1129;DHT22;553;51.038;7.216;2023-06-22T08:08:57;27.80;83.00
1129;DHT22;553;51.038;7.216;2023-06-22T08:11:25;27.50;83.40
1129;DHT22;553;51.038;7.216;2023-06-22T08:13:52;27.40;82.90
1129;DHT22;553;51.038;7.216;2023-06-22T08:16:19;27.60;83.10
1129;DHT22;553;51.038;7.216;2023-06-22T08:18:45;27.80;82.50
1129;DHT22;553;51.038;7.216;2023-06-22T08:21:12;27.90;81.70
1129;DHT22;553;51.038;7.216;2023-06-22T08:23:39;28.00;81.90
1129;DHT22;553;51.038;7.216;2023-06-22T08:26:05;28.10;81.60
1129;DHT22;553;51.038;7.216;2023-06-22T08:28:32;28.10;81.20
1129;DHT22;553;51.038;7.216;2023-06-22T08:30:59;28.00;82.00
1129;DHT22;553;51.038;7.216;2023-06-22T08:33:27;28.00;81.70
1129;DHT22;553;51.038;7.216;2023-06-22T08:35:58;28.00;82.10
1129;DHT22;553;51.038;7.216;2023-06-22T08:38:25;27.90;82.10
1129;DHT22;553;51.038;7.216;2023-06-22T08:40:51;28.00;82.40
1129;DHT22;553;51.038;7.216;2023-06-22T08:43:18;28.30;82.70
1129;DHT22;553;51.038;7.216;2023-06-22T08:45:45;28.40;82.10
1129;DHT22;553;51.038;7.216;2023-06-22T08:48:12;28.60;81.60
1129;DHT22;553;51.038;7.216;2023-06-22T08:50:39;28.70;81.30
1129;DHT22;553;51.038;7.216;2023-06-22T08:53:07;28.90;82.10
1129;DHT22;553;51.038;7.216;2023-06-22T08:55:34;29.10;81.40
1129;DHT22;553;51.038;7.216;2023-06-22T08:58:00;29.10;81.20
1129;DHT22;553;51.038;7.216;2023-06-22T09:00:27;29.30;80.00
1129;DHT22;553;51.038;7.216;2023-06-22T09:02:55;29.20;80.60
1129;DHT22;553;51.038;7.216;2023-06-22T09:05:25;29.30;80.90
1129;DHT22;553;51.038;7.216;2023-06-22T09:07:58;29.10;80.90
1129;DHT22;553;51.038;7.216;2023-06-22T09:10:26;29.10;81.80
1129;DHT22;553;51.038;7.216;2023-06-22T09:12:53;28.90;81.20
1129;DHT22;553;51.038;7.216;2023-06-22T09:15:20;28.80;79.80
1129;DHT22;553;51.038;7.216;2023-06-22T09:17:47;28.60;80.70
1129;DHT22;553;51.038;7.216;2023-06-22T09:20:14;28.50;81.00
1129;DHT22;553;51.038;7.216;2023-06-22T09:22:42;28.50;81.00
1129;DHT22;553;51.038;7.216;2023-06-22T09:25:09;28.50;81.40
1129;DHT22;553;51.038;7.216;2023-06-22T09:27:35;28.50;80.80
1129;DHT22;553;51.038;7.216;2023-06-22T09:30:03;28.40;80.20
1129;DHT22;553;51.038;7.216;2023-06-22T09:32:30;28.40;80.80
1129;DHT22;553;51.038;7.216;2023-06-22T09:34:57;28.20;81.50
1129;DHT22;553;51.038;7.216;2023-06-22T09:37:23;28.30;81.10
1129;DHT22;553;51.038;7.216;2023-06-22T09:39:50;28.40;80.80
1129;DHT22;553;51.038;7.216;2023-06-22T09:42:17;28.50;80.70
1129;DHT22;553;51.038;7.216;2023-06-22T09:44:44;28.60;80.40
1129;DHT22;553;51.038;7.216;2023-06-22T09:47:10;28.70;80.20
1129;DHT22;553;51.038;7.216;2023-06-22T09:49:37;28.70;79.80
1129;DHT22;553;51.038;7.216;2023-06-22T09:52:14;28.60;80.50
1129;DHT22;553;51.038;7.216;2023-06-22T09:54:41;28.70;80.40
1129;DHT22;553;51.038;7.216;2023-06-22T09:57:08;28.70;80.60
1129;DHT22;553;51.038;7.216;2023-06-22T09:59:34;28.60;80.70
1129;DHT22;553;51.038;7.216;2023-06-22T10:02:01;28.70;81.40
1129;DHT22;553;51.038;7.216;2023-06-22T10:04:28;28.80;80.60
1129;DHT22;553;51.038;7.216;2023-06-22T10:06:56;28.90;80.90
1129;DHT22;553;51.038;7.216;2023-06-22T10:09:23;29.00;80.60
1129;DHT22;553;51.038;7.216;2023-06-22T10:11:49;28.80;80.80
1129;DHT22;553;51.038;7.216;2023-06-22T10:14:16;28.60;80.40
1129;DHT22;553;51.038;7.216;2023-06-22T10:16:43;28.40;81.60
1129;DHT22;553;51.038;7.216;2023-06-22T10:19:10;28.40;81.80
1129;DHT22;553;51.038;7.216;2023-06-22T10:21:36;28.40;81.80
1129;DHT22;553;51.038;7.216;2023-06-22T10:24:03;28.50;82.20
1129;DHT22;553;51.038;7.216;2023-06-22T10:26:33;28.40;81.50
1129;DHT22;553;51.038;7.216;2023-06-22T10:29:00;28.30;82.10
1129;DHT22;553;51.038;7.216;2023-06-22T10:31:33;28.10;82.10
1129;DHT22;553;51.038;7.216;2023-06-22T10:34:00;28.00;82.70
1129;DHT22;553;51.038;7.216;2023-06-22T10:36:26;28.00;83.10
1129;DHT22;553;51.038;7.216;2023-06-22T10:38:53;27.90;83.40
1129;DHT22;553;51.038;7.216;2023-06-22T10:41:22;28.00;83.60
1129;DHT22;553;51.038;7.216;2023-06-22T10:43:48;28.00;84.30
1129;DHT22;553;51.038;7.216;2023-06-22T10:46:15;28.00;85.00
1129;DHT22;553;51.038;7.216;2023-06-22T10:48:42;27.90;88.20
1129;DHT22;553;51.038;7.216;2023-06-22T10:51:08;28.00;90.20
1129;DHT22;553;51.038;7.216;2023-06-22T10:53:35;27.80;90.90
1129;DHT22;553;51.038;7.216;2023-06-22T10:56:02;27.80;89.70
1129;DHT22;553;51.038;7.216;2023-06-22T10:58:29;27.50;92.60
1129;DHT22;553;51.038;7.216;2023-06-22T11:00:55;27.20;94.40
1129;DHT22;553;51.038;7.216;2023-06-22T11:03:22;26.90;95.20
1129;DHT22;553;51.038;7.216;2023-06-22T11:05:49;26.80;98.20
1129;DHT22;553;51.038;7.216;2023-06-22T11:08:16;26.70;98.40
1129;DHT22;553;51.038;7.216;2023-06-22T11:10:43;26.70;99.40
1129;DHT22;553;51.038;7.216;2023-06-22T11:13:10;26.70;99.90
1129;DHT22;553;51.038;7.216;2023-06-22T11:15:39;26.60;99.90
1129;DHT22;553;51.038;7.216;2023-06-22T11:18:05;26.50;99.90
1129;DHT22;553;51.038;7.216;2023-06-22T11:20:33;26.50;99.90
1129;DHT22;553;51.038;7.216;2023-06-22T11:23:05;26.40;99.90
1129;DHT22;553;51.038;7.216;2023-06-22T11:25:35;26.20;99.90
1129;DHT22;553;51.038;7.216;2023-06-22T11:28:02;25.90;99.90
1129;DHT22;553;51.038;7.216;2023-06-22T11:30:30;25.60;99.90
1129;DHT22;553;51.038;7.216;2023-06-22T11:32:58;25.40;99.90
1129;DHT22;553;51.038;7.216;2023-06-22T11:35:26;25.40;99.90
1129;DHT22;553;51.038;7.216;2023-06-22T11:37:52;25.40;99.90
1129;DHT22;553;51.038;7.216;2023-06-22T11:40:19;25.40;99.90
1129;DHT22;553;51.038;7.216;2023-06-22T11:42:46;25.20;99.90
1129;DHT22;553;51.038;7.216;2023-06-22T11:45:13;25.00;99.90
1129;DHT22;553;51.038;7.216;2023-06-22T11:47:39;24.90;99.90
1129;DHT22;553;51.038;7.216;2023-06-22T11:50:07;24.50;99.90
1129;DHT22;553;51.038;7.216;2023-06-22T11:52:34;24.20;99.90
1129;DHT22;553;51.038;7.216;2023-06-22T11:55:03;24.00;99.90
1129;DHT22;553;51.038;7.216;2023-06-22T11:57:39;23.80;99.90
1129;DHT22;553;51.038;7.216;2023-06-22T12:00:18;23.60;99.90
1129;DHT22;553;51.038;7.216;2023-06-22T12:02:45;23.40;99.90
1129;DHT22;553;51.038;7.216;2023-06-22T12:05:13;23.20;99.90
1129;DHT22;553;51.038;7.216;2023-06-22T12:07:40;23.10;99.90
1129;DHT22;553;51.038;7.216;2023-06-22T12:10:07;23.20;99.90
1129;DHT22;553;51.038;7.216;2023-06-22T12:12:33;23.30;99.90
1129;DHT22;553;51.038;7.216;2023-06-22T12:15:00;23.50;99.90
1129;DHT22;553;51.038;7.216;2023-06-22T12:17:30;23.70;99.90
1129;DHT22;553;51.038;7.216;2023-06-22T12:19:58;24.00;99.90
1129;DHT22;553;51.038;7.216;2023-06-22T12:22:24;24.20;99.90
1129;DHT22;553;51.038;7.216;2023-06-22T12:24:51;24.30;99.90
1129;DHT22;553;51.038;7.216;2023-06-22T12:27:18;24.40;99.90
1129;DHT22;553;51.038;7.216;2023-06-22T12:29:48;24.30;99.90
1129;DHT22;553;51.038;7.216;2023-06-22T12:32:15;24.20;99.90
1129;DHT22;553;51.038;7.216;2023-06-22T12:34:44;24.10;99.90
1129;DHT22;553;51.038;7.216;2023-06-22T12:37:11;24.10;99.90
1129;DHT22;553;51.038;7.216;2023-06-22T12:39:40;24.10;99.90
1129;DHT22;553;51.038;7.216;2023-06-22T12:42:07;24.10;99.90
1129;DHT22;553;51.038;7.216;2023-06-22T12:44:36;24.10;99.90
1129;DHT22;553;51.038;7.216;2023-06-22T12:47:03;24.00;99.90
1129;DHT22;553;51.038;7.216;2023-06-22T12:49:30;24.00;99.90
1129;DHT22;553;51.038;7.216;2023-06-22T12:51:57;23.90;99.90
1129;DHT22;553;51.038;7.216;2023-06-22T12:54:24;23.80;99.90
1129;DHT22;553;51.038;7.216;2023-06-22T12:56:51;23.70;99.90
1129;DHT22;553;51.038;7.216;2023-06-22T12:59:19;23.80;99.90
1129;DHT22;553;51.038;7.216;2023-06-22T13:01:46;23.80;99.90
1129;DHT22;553;51.038;7.216;2023-06-22T13:04:13;23.90;99.90
1129;DHT22;553;51.038;7.216;2023-06-22T13:06:45;24.10;99.90
1129;DHT22;553;51.038;7.216;2023-06-22T13:09:18;24.20;99.90
1129;DHT22;553;51.038;7.216;2023-06-22T13:11:47;24.30;99.90
1129;DHT22;553;51.038;7.216;2023-06-22T13:14:14;24.40;99.90
1129;DHT22;553;51.038;7.216;2023-06-22T13:16:42;24.30;99.90
1129;DHT22;553;51.038;7.216;2023-06-22T13:19:09;24.30;99.90
1129;DHT22;553;51.038;7.216;2023-06-22T13:21:36;24.30;99.90
1129;DHT22;553;51.038;7.216;2023-06-22T13:24:03;24.20;99.90
1129;DHT22;553;51.038;7.216;2023-06-22T13:26:32;24.20;99.90
1129;DHT22;553;51.038;7.216;2023-06-22T13:29:00;24.20;99.90
1129;DHT22;553;51.038;7.216;2023-06-22T13:31:26;24.30;99.90
1129;DHT22;553;51.038;7.216;2023-06-22T13:33:53;24.20;99.90
1129;DHT22;553;51.038;7.216;2023-06-22T13:36:20;24.30;99.90
1129;DHT22;553;51.038;7.216;2023-06-22T13:38:48;24.30;99.90
1129;DHT22;553;51.038;7.216;2023-06-22T13:41:14;24.50;99.90
1129;DHT22;553;51.038;7.216;2023-06-22T13:43:41;24.40;99.90
1129;DHT22;553;51.038;7.216;2023-06-22T13:46:08;24.60;99.90
1129;DHT22;553;51.038;7.216;2023-06-22T13:48:34;24.80;99.90
1129;DHT22;553;51.038;7.216;2023-06-22T13:51:01;25.00;99.90
1129;DHT22;553;51.038;7.216;2023-06-22T13:53:28;24.90;99.90
1129;DHT22;553;51.038;7.216;2023-06-22T13:55:55;24.90;99.90
1129;DHT22;553;51.038;7.216;2023-06-22T13:58:22;24.90;99.90
1129;DHT22;553;51.038;7.216;2023-06-22T14:00:49;24.90;99.90
1129;DHT22;553;51.038;7.216;2023-06-22T14:03:16;25.00;99.90
1129;DHT22;553;51.038;7.216;2023-06-22T14:05:43;25.10;99.90
1129;DHT22;553;51.038;7.216;2023-06-22T14:08:09;25.20;99.90
1129;DHT22;553;51.038;7.216;2023-06-22T14:10:56;25.20;99.70
1129;DHT22;553;51.038;7.216;2023-06-22T14:13:23;25.30;99.50
1129;DHT22;553;51.038;7.216;2023-06-22T14:15:50;25.30;99.40
1129;DHT22;553;51.038;7.216;2023-06-22T14:18:18;25.20;99.20
1129;DHT22;553;51.038;7.216;2023-06-22T14:20:45;25.30;99.90
1129;DHT22;553;51.038;7.216;2023-06-22T14:23:14;25.30;99.90
1129;DHT22;553;51.038;7.216;2023-06-22T14:25:41;25.40;99.90
1129;DHT22;553;51.038;7.216;2023-06-22T14:28:07;25.40;99.90
1129;DHT22;553;51.038;7.216;2023-06-22T14:30:34;25.30;99.90
1129;DHT22;553;51.038;7.216;2023-06-22T14:33:01;25.20;99.70
1129;DHT22;553;51.038;7.216;2023-06-22T14:35:27;25.20;99.90
1129;DHT22;553;51.038;7.216;2023-06-22T14:37:54;25.30;99.90
1129;DHT22;553;51.038;7.216;2023-06-22T14:40:21;25.30;99.50
1129;DHT22;553;51.038;7.216;2023-06-22T14:42:52;25.40;99.70
1129;DHT22;553;51.038;7.216;2023-06-22T14:45:19;25.40;99.20
1129;DHT22;553;51.038;7.216;2023-06-22T14:47:45;25.30;99.20
1129;DHT22;553;51.038;7.216;2023-06-22T14:50:12;25.30;99.10
1129;DHT22;553;51.038;7.216;2023-06-22T14:52:40;25.20;99.40
1129;DHT22;553;51.038;7.216;2023-06-22T14:55:07;25.10;99.60
1129;DHT22;553;51.038;7.216;2023-06-22T14:57:34;25.00;99.70
1129;DHT22;553;51.038;7.216;2023-06-22T15:00:01;24.90;99.90
1129;DHT22;553;51.038;7.216;2023-06-22T15:02:29;24.90;99.90
1129;DHT22;553;51.038;7.216;2023-06-22T15:04:56;24.90;99.90
1129;DHT22;553;51.038;7.216;2023-06-22T15:07:23;25.00;99.90
1129;DHT22;553;51.038;7.216;2023-06-22T15:09:49;24.90;99.90
1129;DHT22;553;51.038;7.216;2023-06-22T15:12:16;24.40;99.90
1129;DHT22;553;51.038;7.216;2023-06-22T15:14:43;24.20;99.90
1129;DHT22;553;51.038;7.216;2023-06-22T15:17:10;24.10;99.90
1129;DHT22;553;51.038;7.216;2023-06-22T15:19:37;24.10;99.90
1129;DHT22;553;51.038;7.216;2023-06-22T15:22:07;23.90;99.90
1129;DHT22;553;51.038;7.216;2023-06-22T15:24:34;23.90;99.90
1129;DHT22;553;51.038;7.216;2023-06-22T15:27:00;23.80;99.90
1129;DHT22;553;51.038;7.216;2023-06-22T15:29:27;23.80;99.90
1129;DHT22;553;51.038;7.216;2023-06-22T15:31:56;23.70;99.90
1129;DHT22;553;51.038;7.216;2023-06-22T15:34:23;23.70;99.90
1129;DHT22;553;51.038;7.216;2023-06-22T15:36:50;23.60;99.90
1129;DHT22;553;51.038;7.216;2023-06-22T15:39:18;23.70;99.90
1129;DHT22;553;51.038;7.216;2023-06-22T15:41:45;23.50;99.90
1129;DHT22;553;51.038;7.216;2023-06-22T15:44:12;23.60;99.90
1129;DHT22;553;51.038;7.216;2023-06-22T15:46:40;23.60;99.90
1129;DHT22;553;51.038;7.216;2023-06-22T15:49:07;23.50;99.90
1129;DHT22;553;51.038;7.216;2023-06-22T15:51:34;23.40;99.90
1129;DHT22;553;51.038;7.216;2023-06-22T15:54:01;23.40;99.90
1129;DHT22;553;51.038;7.216;2023-06-22T15:56:27;23.30;99.90
1129;DHT22;553;51.038;7.216;2023-06-22T15:58:54;23.30;99.90
1129;DHT22;553;51.038;7.216;2023-06-22T16:01:23;23.10;99.90
1129;DHT22;553;51.038;7.216;2023-06-22T16:03:50;23.10;99.90
1129;DHT22;553;51.038;7.216;2023-06-22T16:06:17;23.10;99.90
1129;DHT22;553;51.038;7.216;2023-06-22T16:08:44;23.10;99.90
1129;DHT22;553;51.038;7.216;2023-06-22T16:11:11;23.00;99.90
1129;DHT22;553;51.038;7.216;2023-06-22T16:13:37;22.90;99.90
1129;DHT22;553;51.038;7.216;2023-06-22T16:16:06;22.80;99.90
1129;DHT22;553;51.038;7.216;2023-06-22T16:18:32;22.80;99.90
1129;DHT22;553;51.038;7.216;2023-06-22T16:20:59;22.70;99.90
1129;DHT22;553;51.038;7.216;2023-06-22T16:23:26;22.70;99.90
1129;DHT22;553;51.038;7.216;2023-06-22T16:25:53;22.70;99.90